createdAt,value
2022-12-11T00:00:12.270Z,7.08
2022-12-11T00:03:00.444Z,6.92
2022-12-11T00:05:28.154Z,6.99
2022-12-11T00:07:56.250Z,7.11
2022-12-11T00:10:24.151Z,7.12
2022-12-11T00:12:52.212Z,6.89
2022-12-11T00:15:19.920Z,6.91
2022-12-11T00:17:47.845Z,6.95
2022-12-11T00:20:16.409Z,6.97
2022-12-11T00:22:44.660Z,6.86
2022-12-11T00:25:13.034Z,6.95
2022-12-11T00:27:41.211Z,7.00
2022-12-11T00:30:09.638Z,6.81
2022-12-11T00:32:37.829Z,6.70
2022-12-11T00:35:06.091Z,6.72
2022-12-11T00:37:34.178Z,6.70
2022-12-11T00:40:01.798Z,6.64
2022-12-11T00:42:33.081Z,6.66
2022-12-11T00:45:09.335Z,6.82
2022-12-11T00:47:45.073Z,6.85
2022-12-11T00:50:25.294Z,6.76
2022-12-11T00:52:58.781Z,6.64
2022-12-11T00:55:28.684Z,6.66
2022-12-11T00:57:58.466Z,6.67
2022-12-11T01:00:26.190Z,6.75
2022-12-11T01:02:54.104Z,6.89
2022-12-11T01:05:22.399Z,6.84
2022-12-11T01:07:50.408Z,6.80
2022-12-11T01:10:24.209Z,6.74
2022-12-11T01:12:59.348Z,6.86
2022-12-11T01:15:48.567Z,6.93
2022-12-11T01:18:16.426Z,6.97
2022-12-11T01:20:44.074Z,6.90
2022-12-11T01:23:13.961Z,6.81
2022-12-11T01:25:43.106Z,6.40
2022-12-11T01:28:11.170Z,6.31
2022-12-11T01:30:42.679Z,6.28
2022-12-11T01:33:11.085Z,6.42
2022-12-11T01:35:40.520Z,6.49
2022-12-11T01:38:09.735Z,6.58
2022-12-11T01:40:37.430Z,6.48
2022-12-11T01:43:05.451Z,6.39
2022-12-11T01:45:51.110Z,6.52
2022-12-11T01:48:28.576Z,6.54
2022-12-11T01:51:05.102Z,6.56
2022-12-11T01:53:42.231Z,6.73
2022-12-11T01:56:10.811Z,6.82
2022-12-11T01:58:56.519Z,6.80
2022-12-11T02:01:51.191Z,6.83
2022-12-11T02:04:20.899Z,6.60
2022-12-11T02:06:52.080Z,6.54
2022-12-11T02:09:33.978Z,6.47
2022-12-11T02:12:19.715Z,6.55
2022-12-11T02:15:25.510Z,6.45
2022-12-11T02:18:34.169Z,6.41
2022-12-11T02:21:13.452Z,6.32
2022-12-11T02:24:04.871Z,6.39
2022-12-11T02:27:03.042Z,6.30
2022-12-11T02:29:33.884Z,6.07
2022-12-11T02:32:16.925Z,5.82
2022-12-11T02:34:55.834Z,5.49
2022-12-11T02:37:28.274Z,5.43
2022-12-11T02:39:57.258Z,5.50
2022-12-11T02:42:30.882Z,5.58
2022-12-11T02:45:01.815Z,5.69
2022-12-11T02:47:32.182Z,5.78
2022-12-11T02:50:03.873Z,5.87
2022-12-11T02:52:34.567Z,5.90
2022-12-11T02:55:06.323Z,5.73
2022-12-11T02:57:37.773Z,5.67
2022-12-11T03:00:08.481Z,5.69
2022-12-11T03:02:38.899Z,5.76
2022-12-11T03:05:07.468Z,5.79
2022-12-11T03:07:40.521Z,5.76
2022-12-11T03:10:11.928Z,5.57
2022-12-11T03:12:46.983Z,5.39
2022-12-11T03:15:21.910Z,5.23
2022-12-11T03:18:13.223Z,5.31
2022-12-11T03:20:58.318Z,5.28
2022-12-11T03:23:35.079Z,5.35
2022-12-11T03:26:15.810Z,5.38
2022-12-11T03:29:00.970Z,5.40
2022-12-11T03:32:07.376Z,5.31
2022-12-11T03:35:13.721Z,5.14
2022-12-11T03:37:44.788Z,5.03
2022-12-11T03:40:18.090Z,4.88
2022-12-11T03:42:51.050Z,4.87
2022-12-11T03:45:22.364Z,4.93
2022-12-11T03:47:52.221Z,5.03
2022-12-11T03:50:23.575Z,4.98
2022-12-11T03:52:52.370Z,4.90
2022-12-11T03:55:22.987Z,4.95
2022-12-11T03:57:50.712Z,5.02
2022-12-11T04:00:21.898Z,5.03
2022-12-11T04:03:13.648Z,4.93
2022-12-11T04:05:50.349Z,5.00
2022-12-11T04:08:23.333Z,5.04
2022-12-11T04:11:10.637Z,5.11
2022-12-11T04:13:39.704Z,4.92
2022-12-11T04:16:08.639Z,4.83
2022-12-11T04:18:54.956Z,4.83
2022-12-11T04:21:41.282Z,4.87
2022-12-11T04:24:15.605Z,4.82
2022-12-11T04:26:47.933Z,4.86
2022-12-11T04:29:16.170Z,4.90
2022-12-11T04:31:45.851Z,4.98
2022-12-11T04:34:13.366Z,4.97
2022-12-11T04:36:41.191Z,4.86
2022-12-11T04:39:08.764Z,4.97
2022-12-11T04:41:37.288Z,5.03
2022-12-11T04:44:05.751Z,4.87
2022-12-11T04:46:34.431Z,4.85
2022-12-11T04:49:02.456Z,4.93
2022-12-11T04:51:30.316Z,4.98
2022-12-11T04:53:59.613Z,5.06
2022-12-11T04:56:27.542Z,4.99
2022-12-11T04:58:55.177Z,4.94
2022-12-11T05:01:23.867Z,4.82
2022-12-11T05:03:51.526Z,4.81
2022-12-11T05:06:19.549Z,4.80
2022-12-11T05:08:47.058Z,4.78
2022-12-11T05:11:16.125Z,4.78
2022-12-11T05:13:44.694Z,4.86
2022-12-11T05:16:15.773Z,4.83
2022-12-11T05:18:44.111Z,4.51
2022-12-11T05:21:15.240Z,4.49
2022-12-11T05:23:43.234Z,4.54
2022-12-11T05:26:20.073Z,4.63
2022-12-11T05:28:53.381Z,4.56
2022-12-11T05:31:25.636Z,4.44
2022-12-11T05:33:54.419Z,4.40
2022-12-11T05:36:27.921Z,4.31
2022-12-11T05:38:57.722Z,4.36
2022-12-11T05:41:37.443Z,4.39
2022-12-11T05:44:08.308Z,4.41
2022-12-11T05:46:37.303Z,4.42
2022-12-11T05:49:05.213Z,4.38
2022-12-11T05:51:36.298Z,4.41
2022-12-11T05:54:04.450Z,4.38
2022-12-11T05:56:35.102Z,4.45
2022-12-11T05:59:05.625Z,4.58
2022-12-11T06:01:43.022Z,4.67
2022-12-11T06:04:12.535Z,4.71
2022-12-11T06:06:41.319Z,4.79
2022-12-11T06:09:12.792Z,4.70
2022-12-11T06:11:59.452Z,4.67
2022-12-11T06:14:27.280Z,4.59
2022-12-11T06:16:55.383Z,4.46
2022-12-11T06:19:22.888Z,4.35
2022-12-11T06:21:50.993Z,4.38
2022-12-11T06:24:18.959Z,4.42
2022-12-11T06:27:12.688Z,4.47
2022-12-11T06:29:42.071Z,4.46
2022-12-11T06:32:10.666Z,4.53
2022-12-11T06:34:38.307Z,4.59
2022-12-11T06:37:07.347Z,4.53
2022-12-11T06:39:35.014Z,4.59
2022-12-11T06:42:02.967Z,4.52
2022-12-11T06:44:30.669Z,4.28
2022-12-11T06:46:58.569Z,4.32
2022-12-11T06:49:26.152Z,4.14
2022-12-11T06:51:54.350Z,4.09
2022-12-11T06:54:27.435Z,3.95
2022-12-11T06:56:56.139Z,3.93
2022-12-11T06:59:24.414Z,4.04
2022-12-11T07:01:52.411Z,4.19
2022-12-11T07:04:24.993Z,4.32
2022-12-11T07:06:53.601Z,4.50
2022-12-11T07:09:23.657Z,4.53
2022-12-11T07:11:53.303Z,4.42
2022-12-11T07:14:21.123Z,4.30
2022-12-11T07:16:49.015Z,4.28
2022-12-11T07:19:16.887Z,4.40
2022-12-11T07:21:44.791Z,4.48
2022-12-11T07:24:12.458Z,4.27
2022-12-11T07:26:40.368Z,4.31
2022-12-11T07:29:08.339Z,4.29
2022-12-11T07:31:37.023Z,4.29
2022-12-11T07:34:08.209Z,4.33
2022-12-11T07:36:36.146Z,4.33
2022-12-11T07:39:04.123Z,4.19
2022-12-11T07:41:32.283Z,4.22
2022-12-11T07:44:01.647Z,4.31
2022-12-11T07:46:33.400Z,4.33
2022-12-11T07:49:02.092Z,4.40
2022-12-11T07:51:36.998Z,4.44
2022-12-11T07:54:15.005Z,4.54
2022-12-11T07:56:47.434Z,4.58
2022-12-11T07:59:17.661Z,4.51
2022-12-11T08:01:45.574Z,4.47
2022-12-11T08:04:15.762Z,4.44
2022-12-11T08:06:44.062Z,4.44
2022-12-11T08:09:21.015Z,4.50
2022-12-11T08:11:51.008Z,4.48
2022-12-11T08:14:19.629Z,4.44
2022-12-11T08:16:48.793Z,4.49
2022-12-11T08:19:18.067Z,4.50
2022-12-11T08:21:46.140Z,4.22
2022-12-11T08:24:16.541Z,4.24
2022-12-11T08:26:45.916Z,4.31
2022-12-11T08:29:14.094Z,4.36
2022-12-11T08:31:42.807Z,4.34
2022-12-11T08:34:13.903Z,4.23
2022-12-11T08:36:42.268Z,4.25
2022-12-11T08:39:09.899Z,4.31
2022-12-11T08:41:38.663Z,4.34
2022-12-11T08:44:16.033Z,4.39
2022-12-11T08:46:46.300Z,4.35
2022-12-11T08:49:14.470Z,4.33
2022-12-11T08:51:42.278Z,4.46
2022-12-11T08:54:10.963Z,4.45
2022-12-11T08:56:38.794Z,4.54
2022-12-11T08:59:06.895Z,4.41
2022-12-11T09:01:34.891Z,4.38
2022-12-11T09:04:02.632Z,4.41
2022-12-11T09:06:33.005Z,4.46
2022-12-11T09:09:02.682Z,4.48
2022-12-11T09:11:34.407Z,4.54
2022-12-11T09:14:07.563Z,4.66
2022-12-11T09:16:40.491Z,4.60
2022-12-11T09:19:14.159Z,4.77
2022-12-11T09:21:43.759Z,4.82
2022-12-11T09:24:13.522Z,4.89
2022-12-11T09:26:42.389Z,4.95
2022-12-11T09:29:12.071Z,4.91
2022-12-11T09:31:40.152Z,4.92
2022-12-11T09:34:11.862Z,4.73
2022-12-11T09:36:42.192Z,4.76
2022-12-11T09:39:13.690Z,4.79
2022-12-11T09:42:14.032Z,4.93
2022-12-11T09:44:54.557Z,5.12
2022-12-11T09:47:35.972Z,5.06
2022-12-11T09:50:10.478Z,4.82
2022-12-11T09:52:47.920Z,4.81
2022-12-11T09:55:24.385Z,4.84
2022-12-11T09:58:07.122Z,4.86
2022-12-11T10:01:14.598Z,4.85
2022-12-11T10:04:06.551Z,4.94
2022-12-11T10:07:04.419Z,4.86
2022-12-11T10:10:10.585Z,4.89
2022-12-11T10:13:00.839Z,4.85
2022-12-11T10:15:59.885Z,4.81
2022-12-11T10:18:29.725Z,4.75
2022-12-11T10:21:01.872Z,4.84
2022-12-11T10:23:46.688Z,4.84
2022-12-11T10:26:21.782Z,4.94
2022-12-11T10:28:49.855Z,4.95
2022-12-11T10:31:20.732Z,4.95
2022-12-11T10:34:08.482Z,5.03
2022-12-11T10:36:40.131Z,5.14
2022-12-11T10:39:21.216Z,5.21
2022-12-11T10:41:55.822Z,5.27
2022-12-11T10:44:30.431Z,5.35
2022-12-11T10:47:18.480Z,5.11
2022-12-11T10:49:58.440Z,4.99
2022-12-11T10:52:44.081Z,4.91
2022-12-11T10:55:28.480Z,4.99
2022-12-11T10:58:03.893Z,5.00
2022-12-11T11:00:40.773Z,5.19
2022-12-11T11:03:26.694Z,5.16
2022-12-11T11:06:17.361Z,4.95
2022-12-11T11:08:49.187Z,4.92
2022-12-11T11:11:36.793Z,4.94
2022-12-11T11:14:19.373Z,5.11
2022-12-11T11:16:55.123Z,5.24
2022-12-11T11:19:31.677Z,5.28
2022-12-11T11:22:22.230Z,5.34
2022-12-11T11:24:58.588Z,5.33
2022-12-11T11:27:59.486Z,5.35
2022-12-11T11:30:35.738Z,5.32
2022-12-11T11:33:22.532Z,5.41
2022-12-11T11:35:56.424Z,5.54
2022-12-11T11:38:59.888Z,5.54
2022-12-11T11:41:49.605Z,5.60
2022-12-11T11:44:27.431Z,5.66
2022-12-11T11:47:14.738Z,5.65
2022-12-11T11:49:42.269Z,5.71
2022-12-11T11:52:15.694Z,5.73
2022-12-11T11:55:11.808Z,5.65
2022-12-11T11:57:55.568Z,5.53
2022-12-11T12:00:27.577Z,5.40
2022-12-11T12:03:13.261Z,5.43
2022-12-11T12:05:50.702Z,5.35
2022-12-11T12:08:30.452Z,5.33
2022-12-11T12:11:19.012Z,5.35
2022-12-11T12:13:58.275Z,5.44
2022-12-11T12:17:05.633Z,5.36
2022-12-11T12:20:26.049Z,5.31
2022-12-11T12:23:36.955Z,5.16
2022-12-11T12:26:35.843Z,5.27
2022-12-11T12:29:24.413Z,5.22
2022-12-11T12:32:10.127Z,5.30
2022-12-11T12:35:11.458Z,5.31
2022-12-11T12:38:07.015Z,5.03
2022-12-11T12:41:05.453Z,5.01
2022-12-11T12:44:04.941Z,5.03
2022-12-11T12:46:46.574Z,5.11
2022-12-11T12:49:37.546Z,5.20
2022-12-11T12:52:13.441Z,5.23
2022-12-11T12:55:04.115Z,5.29
2022-12-11T12:57:34.211Z,5.23
2022-12-11T13:00:03.945Z,5.27
2022-12-11T13:02:33.677Z,5.17
2022-12-11T13:05:22.064Z,5.02
2022-12-11T13:08:02.602Z,4.94
2022-12-11T13:10:43.383Z,4.79
2022-12-11T13:13:34.854Z,4.74
2022-12-11T13:16:15.343Z,4.91
2022-12-11T13:18:47.632Z,4.94
2022-12-11T13:21:35.393Z,4.82
2022-12-11T13:24:19.505Z,4.85
2022-12-11T13:26:49.564Z,5.00
2022-12-11T13:29:39.639Z,5.04
2022-12-11T13:32:10.184Z,5.14
2022-12-11T13:34:42.940Z,5.17
2022-12-11T13:37:41.527Z,5.02
2022-12-11T13:40:24.421Z,5.06
2022-12-11T13:43:35.508Z,4.99
2022-12-11T13:46:15.204Z,5.03
2022-12-11T13:48:54.410Z,5.04
2022-12-11T13:51:26.039Z,5.04
2022-12-11T13:54:18.931Z,5.02
2022-12-11T13:57:09.372Z,5.14
2022-12-11T13:59:42.988Z,5.21
2022-12-11T14:02:34.180Z,5.12
2022-12-11T14:05:10.629Z,5.13
2022-12-11T14:07:49.868Z,5.16
2022-12-11T14:10:24.161Z,5.15
2022-12-11T14:13:22.222Z,5.20
2022-12-11T14:15:50.598Z,5.18
2022-12-11T14:18:28.724Z,5.12
2022-12-11T14:21:06.233Z,5.10
2022-12-11T14:23:37.545Z,4.96
2022-12-11T14:26:20.182Z,4.92
2022-12-11T14:28:48.504Z,5.00
2022-12-11T14:31:28.533Z,4.81
2022-12-11T14:34:13.943Z,4.82
2022-12-11T14:36:43.984Z,4.90
2022-12-11T14:39:39.622Z,4.95
2022-12-11T14:42:22.093Z,5.06
2022-12-11T14:45:19.208Z,5.20
2022-12-11T14:47:47.404Z,5.40
2022-12-11T14:50:47.928Z,5.43
2022-12-11T14:53:25.728Z,5.43
2022-12-11T14:55:55.830Z,5.33
2022-12-11T14:58:27.204Z,5.32
2022-12-11T15:01:06.980Z,5.16
2022-12-11T15:03:39.549Z,5.20
2022-12-11T15:06:26.693Z,5.04
2022-12-11T15:08:55.531Z,5.05
2022-12-11T15:11:25.310Z,5.01
2022-12-11T15:13:58.130Z,5.04
2022-12-11T15:16:31.358Z,5.11
2022-12-11T15:18:59.778Z,5.17
2022-12-11T15:21:36.136Z,5.32
2022-12-11T15:24:07.150Z,5.23
2022-12-11T15:26:48.019Z,5.11
2022-12-11T15:29:40.230Z,5.11
2022-12-11T15:32:19.605Z,5.19
2022-12-11T15:34:56.113Z,5.24
2022-12-11T15:37:26.457Z,5.21
2022-12-11T15:39:57.473Z,5.14
2022-12-11T15:42:41.671Z,5.06
2022-12-11T15:45:21.188Z,5.06
2022-12-11T15:47:50.461Z,5.05
2022-12-11T15:50:28.664Z,5.13
2022-12-11T15:52:57.620Z,5.23
2022-12-11T15:55:27.594Z,5.29
2022-12-11T15:58:06.032Z,5.37
2022-12-11T16:00:34.089Z,5.47
2022-12-11T16:03:02.068Z,5.47
2022-12-11T16:05:30.332Z,5.46
2022-12-11T16:08:00.649Z,5.46
2022-12-11T16:10:28.957Z,5.34
2022-12-11T16:12:59.602Z,5.29
2022-12-11T16:15:29.564Z,5.35
2022-12-11T16:18:06.769Z,5.22
2022-12-11T16:20:36.961Z,5.16
2022-12-11T16:23:05.440Z,5.12
2022-12-11T16:25:34.470Z,4.96
2022-12-11T16:28:02.542Z,4.97
2022-12-11T16:30:30.447Z,4.94
2022-12-11T16:32:58.091Z,4.97
2022-12-11T16:35:26.106Z,4.99
2022-12-11T16:37:55.295Z,5.08
2022-12-11T16:40:24.222Z,5.18
2022-12-11T16:42:52.834Z,5.20
2022-12-11T16:45:25.300Z,5.29
2022-12-11T16:47:53.422Z,5.33
2022-12-11T16:50:21.503Z,5.34
2022-12-11T16:52:49.269Z,5.43
2022-12-11T16:55:21.183Z,5.41
2022-12-11T16:57:49.202Z,5.46
2022-12-11T17:00:17.755Z,5.33
2022-12-11T17:02:45.474Z,5.31
2022-12-11T17:05:13.946Z,5.23
2022-12-11T17:07:42.107Z,5.18
2022-12-11T17:10:10.991Z,5.29
2022-12-11T17:12:39.092Z,5.42
2022-12-11T17:15:07.841Z,5.36
2022-12-11T17:17:35.597Z,5.40
2022-12-11T17:20:03.914Z,5.45
2022-12-11T17:22:31.542Z,5.45
2022-12-11T17:24:59.531Z,5.50
2022-12-11T17:27:27.201Z,5.48
2022-12-11T17:29:55.144Z,5.48
2022-12-11T17:32:23.011Z,5.47
2022-12-11T17:34:54.094Z,5.54
2022-12-11T17:37:21.896Z,5.56
2022-12-11T17:39:49.908Z,5.46
2022-12-11T17:42:17.565Z,5.49
2022-12-11T17:44:45.716Z,5.43
2022-12-11T17:47:13.384Z,5.37
2022-12-11T17:49:41.666Z,5.45
2022-12-11T17:52:09.379Z,5.38
2022-12-11T17:54:39.324Z,5.40
2022-12-11T17:57:07.344Z,5.41
2022-12-11T17:59:35.328Z,5.43
2022-12-11T18:02:03.033Z,5.35
2022-12-11T18:04:30.963Z,5.31
2022-12-11T18:06:58.711Z,5.28
2022-12-11T18:09:26.629Z,5.27
2022-12-11T18:11:54.188Z,5.31
2022-12-11T18:14:22.113Z,5.28
2022-12-11T18:16:49.783Z,5.22
2022-12-11T18:19:17.660Z,5.24
2022-12-11T18:21:46.019Z,5.34
2022-12-11T18:24:14.240Z,5.34
2022-12-11T18:26:43.063Z,5.33
2022-12-11T18:29:11.664Z,5.39
2022-12-11T18:31:42.705Z,5.43
2022-12-11T18:34:11.779Z,5.48
2022-12-11T18:36:40.847Z,5.52
2022-12-11T18:39:08.684Z,5.43
2022-12-11T18:41:36.459Z,5.37
2022-12-11T18:44:09.478Z,5.31
2022-12-11T18:46:39.920Z,5.30
2022-12-11T18:49:08.771Z,5.40
2022-12-11T18:51:37.322Z,5.32
2022-12-11T18:54:05.325Z,5.25
2022-12-11T18:56:32.911Z,5.25
2022-12-11T18:59:01.627Z,5.33
2022-12-11T19:01:33.119Z,5.33
2022-12-11T19:04:06.655Z,5.26
2022-12-11T19:06:39.259Z,5.33
2022-12-11T19:09:09.039Z,5.46
2022-12-11T19:11:40.947Z,5.60
2022-12-11T19:14:10.268Z,5.59
2022-12-11T19:16:43.081Z,5.55
2022-12-11T19:19:17.989Z,5.56
2022-12-11T19:21:47.249Z,5.57
2022-12-11T19:24:23.171Z,5.58
2022-12-11T19:26:51.484Z,5.42
2022-12-11T19:29:34.523Z,5.32
2022-12-11T19:32:03.593Z,5.30
2022-12-11T19:34:32.296Z,5.21
2022-12-11T19:37:00.056Z,5.19
2022-12-11T19:39:28.139Z,5.24
2022-12-11T19:41:55.593Z,5.33
2022-12-11T19:44:23.547Z,5.41
2022-12-11T19:47:19.132Z,5.50
2022-12-11T19:49:52.204Z,5.55
2022-12-11T19:52:19.904Z,5.59
2022-12-11T19:54:47.803Z,5.50
2022-12-11T19:57:16.114Z,5.48
2022-12-11T19:59:44.022Z,5.44
2022-12-11T20:02:12.395Z,5.45
2022-12-11T20:04:40.290Z,5.35
2022-12-11T20:07:13.191Z,5.32
2022-12-11T20:09:46.272Z,5.35
2022-12-11T20:12:22.552Z,5.44
2022-12-11T20:14:56.782Z,5.51
2022-12-11T20:17:34.267Z,5.40
2022-12-11T20:20:08.694Z,5.34
2022-12-11T20:22:42.945Z,5.35
2022-12-11T20:25:18.361Z,5.38
2022-12-11T20:27:59.901Z,5.34
2022-12-11T20:30:32.801Z,5.25
2022-12-11T20:33:05.806Z,5.25
2022-12-11T20:35:43.841Z,5.39
2022-12-11T20:38:17.403Z,5.36
2022-12-11T20:40:51.662Z,5.33
2022-12-11T20:44:07.303Z,5.28
2022-12-11T20:46:42.301Z,5.36
2022-12-11T20:49:15.707Z,5.42
2022-12-11T20:51:45.980Z,5.42
2022-12-11T20:54:20.790Z,5.43
2022-12-11T20:56:55.569Z,5.45
2022-12-11T20:59:28.654Z,5.53
2022-12-11T21:02:02.376Z,5.53
2022-12-11T21:04:34.558Z,5.42
2022-12-11T21:07:11.008Z,5.45
2022-12-11T21:09:46.208Z,5.54
2022-12-11T21:12:29.823Z,5.49
2022-12-11T21:15:07.970Z,5.36
2022-12-11T21:17:42.715Z,5.24
2022-12-11T21:20:17.421Z,5.22
2022-12-11T21:22:50.356Z,5.31
2022-12-11T21:25:27.792Z,5.42
2022-12-11T21:28:00.840Z,5.35
2022-12-11T21:30:35.131Z,5.28
2022-12-11T21:33:10.699Z,5.20
2022-12-11T21:35:45.583Z,5.25
2022-12-11T21:38:17.499Z,5.24
2022-12-11T21:40:45.166Z,5.33
2022-12-11T21:43:13.078Z,5.27
2022-12-11T21:48:30.310Z,5.32
2022-12-11T21:51:14.632Z,5.34
2022-12-11T21:53:43.074Z,5.31
2022-12-11T21:56:15.178Z,5.29
2022-12-11T21:58:45.280Z,5.28
2022-12-11T22:01:26.546Z,5.25
2022-12-11T22:03:54.839Z,5.29
2022-12-11T22:06:22.630Z,5.24
2022-12-11T22:08:51.376Z,5.25
2022-12-11T22:11:28.206Z,5.27
2022-12-11T22:13:56.795Z,5.22
2022-12-11T22:16:24.952Z,5.18
2022-12-11T22:18:54.743Z,5.16
2022-12-11T22:21:22.506Z,5.14
2022-12-11T22:23:50.656Z,5.10
2022-12-11T22:26:26.674Z,5.10
2022-12-11T22:28:55.799Z,4.98
2022-12-11T22:31:26.386Z,4.96
2022-12-11T22:33:55.502Z,4.96
2022-12-11T22:36:25.392Z,4.99
2022-12-11T22:38:54.132Z,5.01
2022-12-11T22:41:31.062Z,5.03
2022-12-11T22:44:00.015Z,5.06
2022-12-11T22:46:30.916Z,5.07
2022-12-11T22:48:59.311Z,5.05
2022-12-11T22:51:26.985Z,5.05
2022-12-11T22:53:55.088Z,5.12
2022-12-11T22:56:22.729Z,5.14
2022-12-11T22:58:51.245Z,5.15
2022-12-11T23:01:23.116Z,5.04
2022-12-11T23:03:51.367Z,4.91
2022-12-11T23:06:22.897Z,4.83
2022-12-11T23:08:52.243Z,4.81
2022-12-11T23:11:27.652Z,4.84
2022-12-11T23:13:56.329Z,4.81
2022-12-11T23:16:25.887Z,4.84
2022-12-11T23:18:56.144Z,4.89
2022-12-11T23:21:26.119Z,4.93
2022-12-11T23:23:55.212Z,4.96
2022-12-11T23:26:23.767Z,5.01
2022-12-11T23:28:51.749Z,5.04
2022-12-11T23:31:19.606Z,5.08
2022-12-11T23:33:47.584Z,5.11
2022-12-11T23:36:15.281Z,5.14
2022-12-11T23:38:43.610Z,5.12
2022-12-11T23:41:14.313Z,5.11
2022-12-11T23:43:43.193Z,5.08
2022-12-11T23:46:19.926Z,5.13
2022-12-11T23:48:48.819Z,5.16
2022-12-11T23:51:19.175Z,5.16
2022-12-11T23:53:47.634Z,5.17
2022-12-11T23:56:20.425Z,5.13
2022-12-11T23:58:48.617Z,5.14
